Time;durP1;ratioP1;P1;durP2;ratioP2;P2;SDS_P1;SDS_P2;PMS_P1;PMS_P2;Temp;Humidity;BMP_temperature;BMP_pressure;BME280_temperature;BME280_humidity;BME280_pressure;Samples;Min_cycle;Max_cycle;Signal;HPM_P1;HPM_P2
2023/03/12 00:03:10;;;;;;;34.28;14.98;;;16.90;70.50;;;;;;5077208;23;20538;-80
2023/03/12 00:05:40;;;;;;;35.22;16.15;;;16.90;69.90;;;;;;5072351;28;20045;-80
2023/03/12 00:08:06;;;;;;;31.67;14.18;;;16.90;70.80;;;;;;5072729;28;20079;-80
2023/03/12 00:10:32;;;;;;;36.05;14.50;;;16.90;69.90;;;;;;5072831;28;20066;-81
2023/03/12 00:12:58;;;;;;;35.08;16.40;;;16.80;70.00;;;;;;5073331;28;20100;-80
2023/03/12 00:15:24;;;;;;;38.17;17.52;;;16.80;70.00;;;;;;5072981;28;20119;-79
2023/03/12 00:17:50;;;;;;;34.13;16.33;;;16.80;70.10;;;;;;5073213;28;20028;-79
2023/03/12 00:20:16;;;;;;;43.17;17.30;;;16.80;70.30;;;;;;5073831;28;20518;-79
2023/03/12 00:22:42;;;;;;;32.38;14.93;;;16.70;70.30;;;;;;5073486;28;20029;-79
2023/03/12 00:25:12;;;;;;;32.83;15.43;;;16.70;70.40;;;;;;5072908;28;21264;-81
2023/03/12 00:27:38;;;;;;;32.22;15.70;;;16.70;70.30;;;;;;5072797;28;20028;-80
2023/03/12 00:30:05;;;;;;;38.33;16.20;;;16.70;70.40;;;;;;5072585;28;20052;-80
2023/03/12 00:32:35;;;;;;;35.88;16.73;;;16.70;70.40;;;;;;5072951;28;20032;-81
2023/03/12 00:35:00;;;;;;;33.58;15.48;;;16.70;70.20;;;;;;5073016;28;20492;-80
2023/03/12 00:37:26;;;;;;;37.67;16.15;;;16.60;70.60;;;;;;5072415;28;20033;-81
2023/03/12 00:39:52;;;;;;;44.20;17.25;;;16.70;70.40;;;;;;5072704;28;20037;-80
2023/03/12 00:42:18;;;;;;;34.28;15.93;;;16.60;70.60;;;;;;5072346;28;20395;-80
2023/03/12 00:44:44;;;;;;;38.97;16.13;;;16.60;71.20;;;;;;5072327;28;20051;-79
2023/03/12 00:47:10;;;;;;;33.28;16.75;;;16.60;70.70;;;;;;5072326;28;20036;-79
2023/03/12 00:49:36;;;;;;;36.35;17.30;;;16.60;70.70;;;;;;5072385;28;20084;-78
2023/03/12 00:52:03;;;;;;;38.45;16.63;;;16.60;70.80;;;;;;5071926;28;20040;-80
2023/03/12 00:54:28;;;;;;;40.05;17.85;;;16.60;70.80;;;;;;5072631;28;20035;-79
2023/03/12 00:56:54;;;;;;;56.40;26.90;;;16.50;70.70;;;;;;5072361;28;20033;-79
2023/03/12 00:59:20;;;;;;;34.33;16.60;;;16.60;70.90;;;;;;5072451;28;20037;-80
2023/03/12 01:01:46;;;;;;;35.08;16.90;;;16.50;70.80;;;;;;5072042;28;20080;-79
2023/03/12 01:04:12;;;;;;;39.60;18.00;;;16.50;71.20;;;;;;5072500;28;20025;-80
2023/03/12 01:06:38;;;;;;;40.75;17.70;;;16.50;71.10;;;;;;5073386;28;20040;-80
2023/03/12 01:09:06;;;;;;;42.50;17.08;;;16.50;71.10;;;;;;5073732;28;20036;-79
2023/03/12 01:11:32;;;;;;;32.80;16.17;;;16.40;71.30;;;;;;5072835;28;20032;-79
2023/03/12 01:13:59;;;;;;;38.88;18.05;;;16.40;71.40;;;;;;5072527;28;20391;-79
2023/03/12 01:16:28;;;;;;;34.85;16.80;;;16.30;71.50;;;;;;5072398;28;20087;-80
2023/03/12 01:18:55;;;;;;;35.78;17.35;;;16.30;71.80;;;;;;5075236;28;20024;-78
2023/03/12 01:21:22;;;;;;;42.33;18.15;;;16.30;72.20;;;;;;5075940;28;20495;-78
2023/03/12 01:23:47;;;;;;;35.45;19.00;;;16.30;72.50;;;;;;5076174;28;20416;-79
2023/03/12 01:26:13;;;;;;;41.60;19.55;;;16.30;72.80;;;;;;5075983;28;20050;-79
2023/03/12 01:28:39;;;;;;;42.00;20.67;;;16.20;72.80;;;;;;5076015;28;20388;-79
2023/03/12 01:31:12;;;;;;;39.45;19.45;;;16.20;73.20;;;;;;5076387;28;20488;-80
2023/03/12 01:33:38;;;;;;;42.63;20.52;;;16.30;74.10;;;;;;5075879;28;20020;-78
2023/03/12 01:36:05;;;;;;;38.97;21.23;;;16.20;73.70;;;;;;5075642;28;20472;-79
2023/03/12 01:38:30;;;;;;;46.03;21.90;;;16.20;74.30;;;;;;5075748;28;20028;-79
2023/03/12 01:40:56;;;;;;;45.25;22.80;;;16.20;74.50;;;;;;5075274;28;20040;-79
2023/03/12 01:43:21;;;;;;;43.40;21.88;;;16.20;74.60;;;;;;5075512;28;20059;-80
2023/03/12 01:46:09;;;;;;;45.13;23.38;;;16.20;74.80;;;;;;5057663;28;20059;-80
2023/03/12 01:48:41;;;;;;;43.08;23.33;;;16.20;75.30;;;;;;5075712;28;20132;-80
2023/03/12 01:51:11;;;;;;;39.30;23.30;;;16.20;75.20;;;;;;5078391;28;20047;-80
2023/03/12 01:53:37;;;;;;;50.28;25.67;;;16.20;75.40;;;;;;5079101;28;20060;-78
2023/03/12 01:56:04;;;;;;;42.88;23.80;;;16.20;75.40;;;;;;5077554;28;20056;-79
2023/03/12 01:58:32;;;;;;;47.38;24.25;;;16.10;75.50;;;;;;5076596;28;20028;-69
2023/03/12 02:00:59;;;;;;;40.97;23.98;;;16.20;75.70;;;;;;5075617;28;20036;-79
2023/03/12 02:03:25;;;;;;;44.60;23.95;;;16.10;75.90;;;;;;5075555;28;20032;-78
2023/03/12 02:05:56;;;;;;;42.80;24.13;;;16.10;76.20;;;;;;5057173;28;20454;-78
2023/03/12 02:08:23;;;;;;;39.00;23.23;;;16.00;76.40;;;;;;5074900;28;20039;-78
2023/03/12 02:10:48;;;;;;;45.30;24.55;;;16.00;76.40;;;;;;5075004;28;20159;-79
2023/03/12 02:13:14;;;;;;;43.15;24.95;;;15.90;76.60;;;;;;5074738;28;20527;-78
2023/03/12 02:15:40;;;;;;;42.53;24.08;;;15.90;76.90;;;;;;5075163;28;20044;-79
2023/03/12 02:18:10;;;;;;;43.05;24.63;;;15.90;77.20;;;;;;5075034;28;20029;-79
2023/03/12 02:21:02;;;;;;;40.28;21.73;;;15.80;77.20;;;;;;5075220;28;20116;-79
2023/03/12 02:23:45;;;;;;;43.33;22.45;;;15.80;77.50;;;;;;5074919;28;20118;-80
2023/03/12 02:26:11;;;;;;;46.70;22.88;;;15.70;77.70;;;;;;5074872;28;20040;-80
2023/03/12 02:28:42;;;;;;;41.63;23.55;;;15.70;77.60;;;;;;5075203;28;20373;-79
2023/03/12 02:31:12;;;;;;;41.92;22.80;;;15.70;77.80;;;;;;5057713;28;20043;-78
2023/03/12 02:33:38;;;;;;;41.70;22.23;;;15.60;78.10;;;;;;5074411;28;20432;-78
2023/03/12 02:36:04;;;;;;;41.15;22.63;;;15.60;78.00;;;;;;5074164;28;20062;-80
2023/03/12 02:38:35;;;;;;;43.60;22.58;;;15.50;77.70;;;;;;5075730;28;20029;-79
2023/03/12 02:41:07;;;;;;;45.38;21.65;;;15.50;78.30;;;;;;5076682;28;20037;-78
2023/03/12 02:43:34;;;;;;;48.17;23.23;;;15.40;78.20;;;;;;5075647;28;20132;-79
2023/03/12 02:45:59;;;;;;;37.10;21.02;;;15.40;78.30;;;;;;5074503;28;20045;-79
2023/03/12 02:48:25;;;;;;;41.50;23.23;;;15.40;78.40;;;;;;5056122;28;20361;-80
2023/03/12 02:50:51;;;;;;;39.17;20.75;;;15.40;78.50;;;;;;5056418;28;20033;-79
2023/03/12 02:53:16;;;;;;;38.53;21.20;;;15.40;78.70;;;;;;5074041;28;20476;-79
2023/03/12 02:55:42;;;;;;;46.72;22.30;;;15.30;78.70;;;;;;5074287;28;20037;-80
2023/03/12 02:58:08;;;;;;;39.97;21.75;;;15.20;78.80;;;;;;5074107;28;20079;-79
2023/03/12 03:00:33;;;;;;;37.63;20.77;;;15.20;79.00;;;;;;5074100;28;20045;-80
2023/03/12 03:02:59;;;;;;;41.10;21.50;;;15.20;79.10;;;;;;5073540;28;20045;-79
2023/03/12 03:05:25;;;;;;;40.58;21.45;;;15.20;79.70;;;;;;5073397;28;20074;-80
2023/03/12 03:07:51;;;;;;;37.75;20.58;;;15.20;79.30;;;;;;5073743;28;20029;-79
2023/03/12 03:10:17;;;;;;;39.63;21.35;;;15.10;79.30;;;;;;5073514;28;20040;-79
2023/03/12 03:12:43;;;;;;;39.67;21.40;;;15.10;79.50;;;;;;5073809;28;20079;-79
2023/03/12 03:15:10;;;;;;;45.20;21.55;;;15.10;79.90;;;;;;5073647;28;20041;-79
2023/03/12 03:17:36;;;;;;;37.40;20.88;;;15.00;79.90;;;;;;5073673;28;20169;-78
2023/03/12 03:20:07;;;;;;;41.90;22.13;;;15.00;80.20;;;;;;5073265;28;20037;-79
2023/03/12 03:22:32;;;;;;;45.38;23.30;;;15.00;80.30;;;;;;5073631;28;20055;-79
2023/03/12 03:24:58;;;;;;;39.00;22.77;;;15.00;80.90;;;;;;5074513;28;20447;-78
2023/03/12 03:27:24;;;;;;;39.83;22.23;;;14.90;81.00;;;;;;5074088;28;20380;-78
2023/03/12 03:29:50;;;;;;;41.20;23.45;;;14.90;81.40;;;;;;5073562;28;20396;-77
2023/03/12 03:32:15;;;;;;;41.83;22.58;;;14.80;81.70;;;;;;5073369;28;20400;-79
2023/03/12 03:34:41;;;;;;;36.60;22.23;;;14.80;82.10;;;;;;5073094;28;20040;-79
2023/03/12 03:37:07;;;;;;;33.42;21.35;;;14.80;82.20;;;;;;5073390;28;20386;-80
2023/03/12 03:39:33;;;;;;;34.47;21.10;;;14.70;82.30;;;;;;5055200;28;20052;-78
2023/03/12 03:41:59;;;;;;;34.40;20.30;;;14.70;82.60;;;;;;5072499;28;20033;-79
2023/03/12 03:44:25;;;;;;;35.05;20.60;;;14.60;83.00;;;;;;5073165;28;20040;-79
2023/03/12 03:46:50;;;;;;;33.13;19.08;;;14.50;83.10;;;;;;5072920;28;20040;-79
2023/03/12 03:49:16;;;;;;;38.38;18.55;;;14.50;83.30;;;;;;5072820;28;20051;-79
2023/03/12 03:51:42;;;;;;;30.08;18.48;;;14.40;83.50;;;;;;5072870;28;20028;-79
2023/03/12 03:54:11;;;;;;;30.25;17.67;;;14.40;83.70;;;;;;5072668;28;20024;-80
2023/03/12 03:56:37;;;;;;;35.40;18.42;;;14.30;83.80;;;;;;5073062;28;20068;-79
2023/03/12 03:59:03;;;;;;;33.10;18.23;;;14.30;84.30;;;;;;5072743;28;20083;-79
2023/03/12 04:01:30;;;;;;;29.17;18.35;;;14.30;84.30;;;;;;5072516;28;20044;-80
2023/03/12 04:03:56;;;;;;;28.67;16.98;;;14.30;84.20;;;;;;5072721;28;20106;-79
2023/03/12 04:06:22;;;;;;;31.77;17.60;;;14.30;84.40;;;;;;5072621;28;20044;-78
2023/03/12 04:08:48;;;;;;;27.48;18.08;;;14.30;84.60;;;;;;5072641;28;20079;-80
2023/03/12 04:11:20;;;;;;;28.00;16.58;;;14.30;84.80;;;;;;5072930;28;20476;-78
2023/03/12 04:13:46;;;;;;;26.35;16.40;;;14.30;84.90;;;;;;5074037;28;20103;-79
2023/03/12 04:16:12;;;;;;;26.77;15.63;;;14.20;84.80;;;;;;5072705;28;20040;-80
2023/03/12 04:18:39;;;;;;;23.95;15.43;;;14.20;84.50;;;;;;5073084;28;20480;-80
2023/03/12 04:21:06;;;;;;;26.90;14.13;;;14.20;84.80;;;;;;5072755;28;20068;-80
2023/03/12 04:23:32;;;;;;;26.83;14.25;;;14.10;84.90;;;;;;5072511;28;20108;-79
2023/03/12 04:25:58;;;;;;;25.02;14.00;;;14.10;85.20;;;;;;5072304;28;20403;-80
2023/03/12 04:28:24;;;;;;;28.10;13.48;;;14.10;85.40;;;;;;5072431;28;20021;-78
2023/03/12 04:30:59;;;;;;;21.10;12.75;;;14.10;85.20;;;;;;5072627;28;20395;-79
2023/03/12 04:33:31;;;;;;;25.40;12.70;;;14.10;85.50;;;;;;5072614;28;20037;-78
2023/03/12 04:35:57;;;;;;;22.77;12.43;;;14.10;85.40;;;;;;5072520;28;20029;-80
2023/03/12 04:38:24;;;;;;;23.67;12.55;;;14.10;85.30;;;;;;5072270;28;20419;-79
2023/03/12 04:41:09;;;;;;;25.08;12.77;;;14.10;85.20;;;;;;5072270;28;20472;-79
2023/03/12 04:43:35;;;;;;;21.30;12.32;;;14.10;85.60;;;;;;5072129;28;20037;-79
2023/03/12 04:46:01;;;;;;;20.70;12.15;;;14.20;85.60;;;;;;5072455;28;20047;-80
2023/03/12 04:48:27;;;;;;;21.23;11.35;;;14.20;85.30;;;;;;5072311;28;20087;-79
2023/03/12 04:50:53;;;;;;;22.20;11.07;;;14.20;85.30;;;;;;5072536;28;20039;-80
2023/03/12 04:53:19;;;;;;;22.70;11.18;;;14.20;85.50;;;;;;5074427;28;20506;-80
2023/03/12 04:55:45;;;;;;;22.08;11.27;;;14.20;85.30;;;;;;5076175;28;20442;-78
2023/03/12 04:58:11;;;;;;;24.73;11.02;;;14.20;85.20;;;;;;5076262;28;20072;-79
2023/03/12 05:00:38;;;;;;;22.60;10.98;;;14.20;85.20;;;;;;5077339;28;20112;-79
2023/03/12 05:03:04;;;;;;;20.48;10.07;;;14.20;85.20;;;;;;5076464;28;20190;-79
2023/03/12 05:05:30;;;;;;;23.77;10.70;;;14.10;85.40;;;;;;5076033;28;20044;-78
2023/03/12 05:07:56;;;;;;;20.85;10.50;;;14.10;85.00;;;;;;5076163;28;20492;-79
2023/03/12 05:10:22;;;;;;;20.33;9.63;;;14.10;85.10;;;;;;5075899;28;20111;-78
2023/03/12 05:12:47;;;;;;;18.42;9.60;;;14.10;85.00;;;;;;5075889;28;20407;-78
2023/03/12 05:15:13;;;;;;;18.40;9.88;;;14.10;85.10;;;;;;5075780;28;20028;-78
2023/03/12 05:17:38;;;;;;;16.90;9.77;;;14.20;85.10;;;;;;5075599;28;20472;-78
2023/03/12 05:20:07;;;;;;;22.30;10.23;;;14.20;84.90;;;;;;5076117;28;20115;-80
2023/03/12 05:22:33;;;;;;;18.48;9.18;;;14.20;85.20;;;;;;5075859;28;20461;-79
2023/03/12 05:24:58;;;;;;;20.75;9.82;;;14.10;85.00;;;;;;5075876;28;20078;-79
2023/03/12 05:27:25;;;;;;;23.70;10.23;;;14.10;84.80;;;;;;5075768;28;20134;-79
2023/03/12 05:29:51;;;;;;;21.67;9.23;;;14.20;84.80;;;;;;5075730;28;20039;-78
2023/03/12 05:32:17;;;;;;;26.38;9.75;;;14.10;84.60;;;;;;5075808;28;20047;-78
2023/03/12 05:34:43;;;;;;;18.70;9.02;;;14.10;85.00;;;;;;5075535;28;20425;-78
2023/03/12 05:37:08;;;;;;;21.20;9.15;;;14.10;84.90;;;;;;5075660;28;20578;-79
2023/03/12 05:39:34;;;;;;;19.77;9.60;;;14.10;85.10;;;;;;5075714;28;20051;-78
2023/03/12 05:42:00;;;;;;;22.20;9.98;;;14.10;85.10;;;;;;5075303;28;20037;-78
2023/03/12 05:44:26;;;;;;;20.92;9.52;;;14.10;84.90;;;;;;5075528;28;20146;-81
2023/03/12 05:46:53;;;;;;;18.33;8.90;;;14.10;84.80;;;;;;5076757;28;20442;-80
2023/03/12 05:49:19;;;;;;;17.90;8.60;;;14.10;84.70;;;;;;5078473;28;20033;-77
2023/03/12 05:51:49;;;;;;;21.42;9.07;;;14.10;84.80;;;;;;5075576;28;20539;-79
2023/03/12 05:54:16;;;;;;;17.25;9.32;;;14.20;84.60;;;;;;5075343;28;20028;-78
2023/03/12 05:56:42;;;;;;;19.13;9.45;;;14.10;84.70;;;;;;5075347;28;20112;-79
2023/03/12 05:59:09;;;;;;;16.10;8.70;;;14.20;84.70;;;;;;5075036;28;20056;-79
2023/03/12 06:01:35;;;;;;;18.17;9.18;;;14.20;84.70;;;;;;5075094;28;20404;-80
2023/03/12 06:04:01;;;;;;;19.85;9.23;;;14.10;84.90;;;;;;5056550;28;20090;-80
2023/03/12 06:06:29;;;;;;;20.85;9.73;;;14.10;85.20;;;;;;5056899;28;20044;-78
2023/03/12 06:08:55;;;;;;;20.63;9.88;;;14.10;85.20;;;;;;5075048;28;20039;-80
2023/03/12 06:11:20;;;;;;;22.05;10.13;;;14.10;85.00;;;;;;5075533;28;20540;-79
2023/03/12 06:13:46;;;;;;;20.98;9.95;;;14.20;84.80;;;;;;5056997;28;20037;-79
2023/03/12 06:16:18;;;;;;;24.38;10.13;;;14.20;84.90;;;;;;5075080;28;20075;-79
2023/03/12 06:18:43;;;;;;;22.27;10.15;;;14.20;84.80;;;;;;5075259;28;20131;-80
2023/03/12 06:21:19;;;;;;;25.65;10.38;;;14.20;84.80;;;;;;5075176;28;20492;-78
2023/03/12 06:23:46;;;;;;;16.70;9.40;;;14.20;84.70;;;;;;5074943;28;20047;-79
2023/03/12 06:26:12;;;;;;;19.08;9.75;;;14.20;84.70;;;;;;5074687;28;20544;-79
2023/03/12 06:28:38;;;;;;;19.60;9.98;;;14.30;84.60;;;;;;5074671;28;20029;-78
2023/03/12 06:31:04;;;;;;;18.88;10.05;;;14.40;84.50;;;;;;5075966;28;20443;-80
2023/03/12 06:33:30;;;;;;;22.75;11.15;;;14.40;84.10;;;;;;5074952;28;20029;-79
2023/03/12 06:36:16;;;;;;;23.35;10.02;;;14.50;84.10;;;;;;5074337;28;20028;-79
2023/03/12 06:38:42;;;;;;;16.42;8.98;;;14.70;83.80;;;;;;5074205;28;20107;-78
2023/03/12 06:41:10;;;;;;;18.65;9.75;;;14.90;83.60;;;;;;5074554;28;20095;-80
2023/03/12 06:43:37;;;;;;;23.27;9.45;;;15.00;83.10;;;;;;5073969;28;20032;-80
2023/03/12 06:46:04;;;;;;;18.75;10.13;;;15.10;82.80;;;;;;5074066;28;20033;-79
2023/03/12 06:48:35;;;;;;;23.35;11.20;;;15.20;82.70;;;;;;5074035;28;20037;-79
2023/03/12 06:51:04;;;;;;;16.35;9.40;;;15.40;82.70;;;;;;5073849;28;20152;-79
2023/03/12 06:53:30;;;;;;;21.48;9.95;;;15.50;82.20;;;;;;5073878;28;20037;-79
2023/03/12 06:55:56;;;;;;;26.02;10.00;;;15.60;82.00;;;;;;5073869;28;20036;-79
2023/03/12 06:58:22;;;;;;;18.95;9.77;;;15.70;81.80;;;;;;5073817;28;20447;-79
2023/03/12 07:00:48;;;;;;;20.17;9.50;;;15.70;81.70;;;;;;5073548;28;20120;-79
2023/03/12 07:03:14;;;;;;;14.82;8.75;;;15.80;81.40;;;;;;5073329;28;20128;-78
2023/03/12 07:05:43;;;;;;;21.42;9.45;;;15.90;81.10;;;;;;5073482;28;20044;-78
2023/03/12 07:08:09;;;;;;;24.65;9.73;;;16.00;80.80;;;;;;5073703;28;20032;-79
2023/03/12 07:10:34;;;;;;;18.77;9.63;;;16.00;80.90;;;;;;5055563;28;20033;-79
2023/03/12 07:13:00;;;;;;;18.35;9.90;;;16.10;80.80;;;;;;5073415;28;20035;-79
2023/03/12 07:15:26;;;;;;;19.92;9.60;;;16.20;80.10;;;;;;5073283;28;20032;-80
2023/03/12 07:17:51;;;;;;;17.98;9.30;;;16.30;79.90;;;;;;5073215;28;20488;-78
2023/03/12 07:20:17;;;;;;;21.00;10.15;;;16.40;79.80;;;;;;5055202;28;20112;-78
2023/03/12 07:22:43;;;;;;;22.15;9.85;;;16.60;79.70;;;;;;5073324;28;20103;-77
2023/03/12 07:25:10;;;;;;;21.95;10.07;;;16.60;79.30;;;;;;5073280;28;20032;-78
2023/03/12 07:27:36;;;;;;;20.70;9.50;;;16.60;79.50;;;;;;5073432;28;20041;-79
2023/03/12 07:30:02;;;;;;;18.55;8.63;;;16.70;78.70;;;;;;5073874;28;20167;-80
2023/03/12 07:32:28;;;;;;;19.65;9.32;;;16.70;78.30;;;;;;5073542;28;20029;-80
2023/03/12 07:34:53;;;;;;;17.23;9.85;;;16.70;78.30;;;;;;5072909;28;20043;-79
2023/03/12 07:37:19;;;;;;;19.23;9.55;;;16.80;78.10;;;;;;5072655;28;20472;-79
2023/03/12 07:39:50;;;;;;;17.80;8.98;;;16.80;77.80;;;;;;5072563;28;20040;-78
2023/03/12 07:42:15;;;;;;;17.02;7.80;;;16.90;77.60;;;;;;5072476;28;20510;-79
2023/03/12 07:44:41;;;;;;;16.38;8.50;;;16.90;77.60;;;;;;5072235;28;20044;-80
2023/03/12 07:47:09;;;;;;;19.52;8.88;;;16.90;77.10;;;;;;5072563;28;20404;-78
2023/03/12 07:49:35;;;;;;;21.73;8.35;;;17.00;77.20;;;;;;5072375;28;20042;-80
2023/03/12 07:52:01;;;;;;;20.70;8.18;;;17.00;76.70;;;;;;5072457;28;20111;-79
2023/03/12 07:54:29;;;;;;;15.93;7.78;;;17.00;76.50;;;;;;5054321;28;20035;-80
2023/03/12 07:56:58;;;;;;;16.90;7.75;;;17.10;76.40;;;;;;5072215;28;20120;-78
2023/03/12 07:59:25;;;;;;;17.25;8.05;;;17.00;76.20;;;;;;5073253;28;20404;-80
2023/03/12 08:01:51;;;;;;;20.35;7.03;;;17.00;76.20;;;;;;5072437;28;20044;-80
2023/03/12 08:04:16;;;;;;;22.13;8.00;;;17.10;75.90;;;;;;5072436;28;20071;-80
2023/03/12 08:06:42;;;;;;;24.88;7.35;;;17.10;76.00;;;;;;5072004;28;20495;-78
2023/03/12 08:09:09;;;;;;;19.77;7.75;;;17.20;75.90;;;;;;5054232;28;20090;-80
2023/03/12 08:11:35;;;;;;;15.00;6.80;;;17.30;75.80;;;;;;5072308;28;20044;-80
2023/03/12 08:14:02;;;;;;;19.52;7.05;;;17.30;75.70;;;;;;5072282;28;20023;-77
2023/03/12 08:16:28;;;;;;;19.00;7.63;;;17.30;75.20;;;;;;5072525;28;20095;-78
2023/03/12 08:18:54;;;;;;;24.75;7.22;;;17.30;75.90;;;;;;5053979;28;20460;-80
2023/03/12 08:21:19;;;;;;;17.50;7.28;;;17.30;75.40;;;;;;5071724;28;20139;-79
2023/03/12 08:23:45;;;;;;;17.48;6.20;;;17.30;75.00;;;;;;5071903;28;20367;-79
2023/03/12 08:26:11;;;;;;;20.00;6.50;;;17.30;75.20;;;;;;5071677;28;20543;-79
2023/03/12 08:28:37;;;;;;;20.15;7.43;;;17.30;75.30;;;;;;5072081;28;20072;-80
2023/03/12 08:31:03;;;;;;;17.13;6.30;;;17.30;75.10;;;;;;5071757;28;20048;-79
2023/03/12 08:33:28;;;;;;;14.65;5.85;;;17.30;75.20;;;;;;5071966;28;20123;-80
2023/03/12 08:35:54;;;;;;;18.67;6.10;;;17.30;74.80;;;;;;5072736;28;20035;-80
2023/03/12 08:38:20;;;;;;;21.13;7.30;;;17.30;74.80;;;;;;5072190;28;20350;-80
2023/03/12 08:40:46;;;;;;;15.45;6.18;;;17.40;74.60;;;;;;5071782;28;20033;-80
2023/03/12 08:43:12;;;;;;;17.75;6.40;;;17.40;74.50;;;;;;5073260;28;20435;-80
2023/03/12 08:45:37;;;;;;;17.35;5.80;;;17.40;74.40;;;;;;5055554;28;20591;-80
2023/03/12 08:48:04;;;;;;;16.40;5.80;;;17.40;74.30;;;;;;5073126;28;20024;-79
2023/03/12 08:50:31;;;;;;;21.20;6.18;;;17.40;74.20;;;;;;5054628;28;20083;-80
2023/03/12 08:52:57;;;;;;;16.05;6.70;;;17.40;74.00;;;;;;5072598;28;20044;-81
2023/03/12 08:55:24;;;;;;;16.85;6.07;;;17.50;73.80;;;;;;5072380;28;20079;-79
2023/03/12 08:57:50;;;;;;;19.52;6.18;;;17.50;74.00;;;;;;5072563;28;20539;-79
2023/03/12 09:00:16;;;;;;;19.83;6.60;;;17.50;73.90;;;;;;5072457;28;20117;-80
2023/03/12 09:02:44;;;;;;;18.20;6.13;;;17.60;74.00;;;;;;5071919;28;20057;-79
2023/03/12 09:05:10;;;;;;;14.35;5.50;;;17.60;73.80;;;;;;5071843;28;20088;-80
2023/03/12 09:07:43;;;;;;;19.13;5.68;;;17.70;73.60;;;;;;5071582;28;20032;-79
2023/03/12 09:10:09;;;;;;;19.23;6.13;;;17.80;73.40;;;;;;5072422;28;20037;-79
2023/03/12 09:12:35;;;;;;;18.83;6.07;;;17.90;73.90;;;;;;5054680;28;20032;-78
2023/03/12 09:15:01;;;;;;;15.63;5.05;;;18.00;73.20;;;;;;5072744;28;20033;-80
2023/03/12 09:17:28;;;;;;;22.20;5.70;;;18.00;73.10;;;;;;5072233;28;20365;-78
2023/03/12 09:19:54;;;;;;;19.85;5.47;;;18.10;72.70;;;;;;5072270;28;20025;-80
2023/03/12 09:22:20;;;;;;;17.65;5.40;;;18.10;73.00;;;;;;5072326;28;20029;-79
2023/03/12 09:24:45;;;;;;;17.92;5.22;;;18.10;72.90;;;;;;5072432;28;20036;-79
2023/03/12 09:27:11;;;;;;;17.23;4.97;;;18.20;72.60;;;;;;5072969;28;20076;-80
2023/03/12 09:29:37;;;;;;;14.25;4.90;;;18.20;72.40;;;;;;5057212;28;20435;-79
2023/03/12 09:32:03;;;;;;;15.10;5.07;;;18.20;72.30;;;;;;5073420;28;20041;-80
2023/03/12 09:34:28;;;;;;;17.13;4.85;;;18.30;72.30;;;;;;5071918;28;20037;-79
2023/03/12 09:36:54;;;;;;;18.30;5.40;;;18.40;72.20;;;;;;5072186;28;20044;-77
2023/03/12 09:39:21;;;;;;;14.80;5.00;;;18.40;72.10;;;;;;5073970;28;20029;-79
2023/03/12 09:41:48;;;;;;;16.38;5.03;;;18.50;71.90;;;;;;5075556;28;20048;-78
2023/03/12 09:44:27;;;;;;;16.40;4.55;;;18.60;71.60;;;;;;5075402;28;20028;-78
2023/03/12 09:46:59;;;;;;;16.88;4.75;;;18.60;72.10;;;;;;5075380;28;20047;-79
2023/03/12 09:49:48;;;;;;;19.00;6.55;;;18.70;71.10;;;;;;5075398;28;20670;-79
2023/03/12 09:52:26;;;;;;;18.23;4.72;;;18.80;70.30;;;;;;5074994;28;20044;-80
2023/03/12 09:55:14;;;;;;;17.80;5.25;;;18.80;70.00;;;;;;5075356;28;20024;-79
2023/03/12 09:57:40;;;;;;;21.13;5.32;;;18.90;69.90;;;;;;5075613;28;20091;-79
2023/03/12 10:00:12;;;;;;;19.60;5.22;;;19.00;69.80;;;;;;5057076;28;20464;-78
2023/03/12 10:03:14;;;;;;;20.10;5.10;;;19.10;69.90;;;;;;5078669;28;20100;-78
2023/03/12 10:05:54;;;;;;;19.80;5.47;;;19.10;69.80;;;;;;5005116;28;20408;-79
2023/03/12 10:08:40;;;;;;;18.27;5.55;;;19.20;69.50;;;;;;5075752;28;20028;-79
2023/03/12 10:11:31;;;;;;;14.75;4.80;;;19.30;68.90;;;;;;5058281;28;20388;-77
2023/03/12 10:14:28;;;;;;;21.55;5.05;;;19.40;68.80;;;;;;5077123;28;20388;-80
2023/03/12 10:17:16;;;;;;;13.70;4.22;;;19.40;68.70;;;;;;5072930;28;20035;-78
2023/03/12 10:19:51;;;;;;;16.00;4.63;;;19.40;68.50;;;;;;5075211;28;20115;-79
2023/03/12 10:22:29;;;;;;;18.98;5.22;;;19.50;68.40;;;;;;5074681;28;20416;-80
2023/03/12 10:25:28;;;;;;;16.80;4.40;;;19.60;67.70;;;;;;5056341;28;20159;-80
2023/03/12 10:28:00;;;;;;;15.40;5.25;;;19.60;67.40;;;;;;5063410;28;20025;-79
2023/03/12 10:30:29;;;;;;;12.77;4.05;;;19.70;67.10;;;;;;5074428;28;20531;-79
2023/03/12 10:32:59;;;;;;;13.68;4.55;;;19.80;66.60;;;;;;5074294;28;20094;-80
2023/03/12 10:35:29;;;;;;;13.35;4.05;;;19.90;66.90;;;;;;5074036;28;20028;-80
2023/03/12 10:38:03;;;;;;;17.77;4.13;;;20.00;66.50;;;;;;5074505;28;20031;-79
2023/03/12 10:40:34;;;;;;;17.73;5.30;;;20.10;66.30;;;;;;5055767;28;20162;-77
2023/03/12 10:43:02;;;;;;;13.60;4.28;;;20.20;66.00;;;;;;5074001;28;20037;-79
2023/03/12 10:45:52;;;;;;;16.77;4.28;;;20.30;65.70;;;;;;5074012;28;20051;-79
2023/03/12 10:48:21;;;;;;;12.18;3.58;;;20.40;65.50;;;;;;5056210;28;20021;-79
2023/03/12 10:51:07;;;;;;;13.88;3.67;;;20.50;64.30;;;;;;5074037;28;20106;-79
2023/03/12 10:53:35;;;;;;;15.20;3.80;;;20.60;64.10;;;;;;5074199;28;20074;-79
2023/03/12 10:56:12;;;;;;;14.82;4.00;;;20.60;63.50;;;;;;5074066;28;20036;-79
2023/03/12 10:58:44;;;;;;;11.82;3.58;;;20.70;63.60;;;;;;5075202;28;20032;-79
2023/03/12 11:01:25;;;;;;;12.45;3.72;;;20.80;63.10;;;;;;5075164;28;20386;-79
2023/03/12 11:03:52;;;;;;;12.90;3.83;;;20.80;62.70;;;;;;5074539;28;20115;-80
2023/03/12 11:06:23;;;;;;;20.77;4.97;;;20.90;63.10;;;;;;5074039;28;20044;-76
2023/03/12 11:09:08;;;;;;;13.50;3.85;;;20.90;62.50;;;;;;5074054;28;20041;-79
2023/03/12 11:11:35;;;;;;;12.98;3.90;;;21.00;62.00;;;;;;5074157;28;20037;-79
2023/03/12 11:14:18;;;;;;;15.70;4.30;;;21.00;62.00;;;;;;5074122;28;20037;-79
2023/03/12 11:16:44;;;;;;;14.25;4.15;;;21.10;61.40;;;;;;5074275;28;20037;-78
2023/03/12 11:19:13;;;;;;;13.43;3.75;;;21.20;60.90;;;;;;5073789;28;20048;-79
2023/03/12 11:21:52;;;;;;;13.30;3.80;;;21.30;60.20;;;;;;5056189;28;20039;-80
2023/03/12 11:24:18;;;;;;;11.13;3.97;;;21.30;59.70;;;;;;5073845;28;20407;-80
2023/03/12 11:26:57;;;;;;;13.13;3.83;;;21.40;59.90;;;;;;5055806;28;20049;-80
2023/03/12 11:29:47;;;;;;;9.68;3.42;;;21.40;59.10;;;;;;5073746;28;20033;-78
2023/03/12 11:32:29;;;;;;;12.07;3.15;;;21.50;59.10;;;;;;5073687;28;20387;-79
2023/03/12 11:34:56;;;;;;;12.85;3.50;;;21.60;58.70;;;;;;5073728;28;20510;-79
2023/03/12 11:37:59;;;;;;;11.13;3.80;;;21.70;58.30;;;;;;5055683;28;20056;-78
2023/03/12 11:40:55;;;;;;;14.02;3.85;;;21.70;57.60;;;;;;5074299;28;20064;-78
2023/03/12 11:43:51;;;;;;;12.02;3.58;;;21.70;58.00;;;;;;5074578;28;20037;-80
2023/03/12 11:46:44;;;;;;;10.40;3.38;;;21.80;57.40;;;;;;5075778;28;20106;-80
2023/03/12 11:49:36;;;;;;;10.55;3.72;;;21.80;56.60;;;;;;5073453;28;20040;-79
2023/03/12 11:52:19;;;;;;;9.02;2.88;;;21.90;56.60;;;;;;5073383;28;20053;-80
2023/03/12 11:55:04;;;;;;;10.23;3.15;;;21.90;55.30;;;;;;5073377;28;20083;-79
2023/03/12 11:57:40;;;;;;;10.30;3.22;;;21.90;55.00;;;;;;5072807;28;20480;-80
2023/03/12 12:00:19;;;;;;;11.20;2.65;;;21.90;54.10;;;;;;5072869;28;20107;-79
2023/03/12 12:02:48;;;;;;;6.47;2.42;;;22.00;55.10;;;;;;5072196;28;20389;-80
2023/03/12 12:06:05;;;;;;;6.63;2.90;;;22.10;54.20;;;;;;5072893;28;20037;-79
2023/03/12 12:08:46;;;;;;;10.27;2.72;;;22.10;51.90;;;;;;5039299;28;20108;-80
2023/03/12 12:11:11;;;;;;;9.57;2.83;;;22.20;51.40;;;;;;5054975;28;20071;-80
2023/03/12 12:13:51;;;;;;;9.23;2.40;;;22.20;51.80;;;;;;5072744;28;20032;-80
2023/03/12 12:16:35;;;;;;;8.82;3.30;;;22.30;50.20;;;;;;5072635;28;20123;-79
2023/03/12 12:19:10;;;;;;;10.07;2.50;;;22.30;50.20;;;;;;5072702;28;20068;-79
2023/03/12 12:21:59;;;;;;;7.90;2.88;;;22.40;51.20;;;;;;5072403;28;20370;-80
2023/03/12 12:24:36;;;;;;;10.65;3.38;;;22.50;50.60;;;;;;5072657;28;20526;-79
2023/03/12 12:27:11;;;;;;;7.15;2.33;;;22.50;50.60;;;;;;5054329;28;20051;-80
2023/03/12 12:30:14;;;;;;;6.35;2.35;;;22.50;50.40;;;;;;5072769;28;20040;-79
2023/03/12 12:33:04;;;;;;;8.10;2.50;;;22.50;49.60;;;;;;5073898;28;20473;-80
2023/03/12 12:35:34;;;;;;;8.02;2.40;;;22.70;51.00;;;;;;5072433;28;20495;-80
2023/03/12 12:39:00;;;;;;;8.43;2.72;;;22.70;49.70;;;;;;5072857;28;20457;-80
2023/03/12 12:41:31;;;;;;;5.43;2.05;;;22.80;48.40;;;;;;4990953;28;20061;-80
2023/03/12 12:44:04;;;;;;;6.68;2.08;;;22.80;49.40;;;;;;5059772;28;20075;-79
2023/03/12 12:46:35;;;;;;;8.60;2.47;;;22.80;49.50;;;;;;5072326;28;20408;-80
2023/03/12 12:49:12;;;;;;;6.57;2.22;;;22.80;49.50;;;;;;5072323;28;20043;-80